Time;durP1;ratioP1;P1;durP2;ratioP2;P2;SDS_P1;SDS_P2;PMS_P1;PMS_P2;Temp;Humidity;BMP_temperature;BMP_pressure;BME280_temperature;BME280_humidity;BME280_pressure;Samples;Min_cycle;Max_cycle;Signal;HPM_P1;HPM_P2
2023/01/02 00:01:27;;;;;;;14.50;9.13;;;;;;;3.10;100.00;100125.16;5007596;28;20046;-47
2023/01/02 00:04:48;;;;;;;12.35;8.32;;;;;;;3.10;100.00;100127.09;5010327;28;20045;-45
2023/01/02 00:07:15;;;;;;;14.30;8.38;;;;;;;3.12;100.00;100135.78;5001253;28;20046;-46
2023/01/02 00:09:42;;;;;;;10.63;7.45;;;;;;;3.12;100.00;100138.53;5002867;28;20073;-46
2023/01/02 00:12:09;;;;;;;11.13;7.85;;;;;;;3.14;100.00;100137.09;5014102;28;20369;-47
2023/01/02 00:14:36;;;;;;;15.75;8.50;;;;;;;3.12;100.00;100146.72;5011347;28;20049;-46
2023/01/02 00:17:09;;;;;;;17.27;10.05;;;;;;;3.11;100.00;100145.91;5012414;28;20076;-46
2023/01/02 00:19:41;;;;;;;12.70;8.50;;;;;;;3.08;100.00;100152.00;5010844;28;20056;-46
2023/01/02 00:22:08;;;;;;;13.38;8.77;;;;;;;3.05;100.00;100153.44;5012051;28;20050;-46
2023/01/02 00:24:34;;;;;;;17.60;9.18;;;;;;;3.05;100.00;100164.38;5011385;28;20558;-48
2023/01/02 00:31:03;;;;;;;17.83;9.35;;;;;;;2.98;100.00;100164.00;5011286;28;20042;-46
2023/01/02 00:33:30;;;;;;;14.32;8.73;;;;;;;2.99;100.00;100175.75;5011762;28;20084;-46
2023/01/02 00:36:11;;;;;;;14.48;9.90;;;;;;;2.98;100.00;100169.47;5010472;28;20049;-46
2023/01/02 00:38:39;;;;;;;11.02;8.05;;;;;;;2.99;100.00;100171.06;5012657;28;20138;-46
2023/01/02 00:41:07;;;;;;;14.23;10.68;;;;;;;2.99;100.00;100168.34;4997201;28;20046;-46
2023/01/02 00:43:35;;;;;;;14.75;9.63;;;;;;;2.99;100.00;100175.75;5010946;28;20046;-46
2023/01/02 00:46:03;;;;;;;12.73;8.93;;;;;;;2.99;100.00;100182.00;5010551;28;20045;-47
2023/01/02 00:48:37;;;;;;;11.52;8.25;;;;;;;2.96;100.00;100188.13;5010494;28;20377;-46
2023/01/02 00:51:04;;;;;;;14.23;9.60;;;;;;;3.00;100.00;100199.22;5010461;28;20042;-46
2023/01/02 00:53:30;;;;;;;13.80;9.30;;;;;;;2.97;100.00;100181.50;5009818;28;20144;-46
2023/01/02 00:55:57;;;;;;;12.32;9.18;;;;;;;2.94;100.00;100201.25;5017642;28;20141;-47
2023/01/02 00:58:24;;;;;;;16.42;10.02;;;;;;;2.91;100.00;100196.41;5013281;28;20092;-46
2023/01/02 01:00:51;;;;;;;17.25;9.82;;;;;;;2.86;100.00;100193.78;5006847;28;20088;-46
2023/01/02 01:03:18;;;;;;;15.98;10.98;;;;;;;2.82;100.00;100202.91;5011856;28;20089;-46
2023/01/02 01:05:45;;;;;;;15.23;10.40;;;;;;;2.76;100.00;100202.22;5009135;28;20084;-46
2023/01/02 01:08:12;;;;;;;21.13;11.05;;;;;;;2.74;100.00;100209.94;5011107;28;20084;-47
2023/01/02 01:10:42;;;;;;;20.48;12.90;;;;;;;2.69;100.00;100199.09;5009958;28;20038;-46
2023/01/02 01:13:44;;;;;;;23.17;12.40;;;;;;;2.65;100.00;100209.00;5008699;28;20240;-47
2023/01/02 01:16:14;;;;;;;21.80;12.68;;;;;;;2.64;100.00;100218.34;5010284;28;20073;-47
2023/01/02 01:18:42;;;;;;;22.38;13.60;;;;;;;2.64;100.00;100212.88;5018699;28;20050;-46
2023/01/02 01:21:17;;;;;;;22.88;13.93;;;;;;;2.65;100.00;100213.69;5008324;28;20403;-46
2023/01/02 01:23:49;;;;;;;20.00;12.13;;;;;;;2.65;100.00;100225.41;5011167;28;20425;-46
2023/01/02 01:26:16;;;;;;;17.13;11.85;;;;;;;2.66;100.00;100235.25;5005005;28;20037;-50
2023/01/02 01:28:43;;;;;;;17.77;11.07;;;;;;;2.66;100.00;100231.69;4999601;28;20054;-46
2023/01/02 01:31:13;;;;;;;22.73;13.43;;;;;;;2.65;100.00;100228.16;5011306;28;20092;-46
2023/01/02 01:33:41;;;;;;;20.05;13.15;;;;;;;2.61;100.00;100232.63;5013524;28;20108;-46
2023/01/02 01:36:14;;;;;;;22.63;13.38;;;;;;;2.59;100.00;100236.78;5015990;28;20108;-48
2023/01/02 01:38:42;;;;;;;21.48;12.77;;;;;;;2.55;100.00;100247.50;5012425;28;20478;-46
2023/01/02 01:41:25;;;;;;;22.25;13.57;;;;;;;2.50;100.00;100250.31;5015996;28;20068;-46
2023/01/02 01:43:55;;;;;;;;;;;;;;;2.46;100.00;100250.13;5025419;28;20376;-46
2023/01/02 01:46:40;;;;;;;34.17;16.88;;;;;;;2.45;100.00;100253.97;5012194;28;19921;-47
2023/01/02 01:49:28;;;;;;;40.30;19.30;;;;;;;2.46;100.00;100260.25;5014001;28;20471;-47
2023/01/02 01:52:20;;;;;;;41.83;20.23;;;;;;;2.47;100.00;100264.59;5012845;28;20128;-48
2023/01/02 01:55:07;;;;;;;42.17;21.30;;;;;;;2.47;100.00;100270.88;5013944;28;20411;-46
2023/01/02 01:57:53;;;;;;;46.75;24.90;;;;;;;2.47;100.00;100275.50;5006611;28;20142;-47
2023/01/02 02:00:21;;;;;;;51.47;23.00;;;;;;;2.47;100.00;100272.78;5013920;28;20054;-46
2023/01/02 02:02:51;;;;;;;54.58;23.30;;;;;;;2.49;100.00;100273.28;5016196;28;20046;-46
2023/01/02 02:05:22;;;;;;;60.65;23.10;;;;;;;2.47;100.00;100279.06;5012873;28;20392;-47
2023/01/02 02:08:09;;;;;;;73.47;24.00;;;;;;;2.47;100.00;100291.91;5012739;28;20100;-51
2023/01/02 02:10:37;;;;;;;76.35;25.75;;;;;;;2.50;100.00;100287.75;5004742;28;20041;-48
2023/01/02 02:13:04;;;;;;;75.93;25.70;;;;;;;2.53;100.00;100290.72;5019294;28;20080;-46
2023/01/02 02:19:48;;;;;;;82.25;24.60;;;;;;;2.59;100.00;100316.00;5006438;28;20129;-46
2023/01/02 02:22:33;;;;;;;102.32;26.13;;;;;;;2.60;100.00;100318.44;5010173;28;20602;-47
2023/01/02 02:25:31;;;;;;;79.75;25.60;;;;;;;2.62;100.00;100318.94;5011076;28;20038;-46
2023/01/02 02:31:53;;;;;;;69.00;27.30;;;;;;;2.62;100.00;100327.13;5008606;28;20038;-46
2023/01/02 02:34:44;;;;;;;64.80;25.97;;;;;;;2.63;100.00;100342.41;5014139;28;20104;-47
2023/01/02 02:37:54;;;;;;;72.50;28.25;;;;;;;2.65;100.00;100351.13;5010796;28;20385;-46
2023/01/02 02:41:10;;;;;;;76.18;28.63;;;;;;;2.66;100.00;100347.28;5009609;28;20058;-46
2023/01/02 02:43:51;;;;;;;73.00;28.33;;;;;;;2.69;100.00;100349.41;5004120;28;20081;-50
2023/01/02 02:46:28;;;;;;;80.93;26.27;;;;;;;2.69;100.00;100349.41;5022194;28;20046;-46
2023/01/02 02:49:40;;;;;;;77.82;26.40;;;;;;;2.71;100.00;100354.56;5015604;28;20085;-46
2023/01/02 02:52:53;;;;;;;72.90;28.35;;;;;;;2.72;100.00;100356.22;5012323;28;20067;-47
2023/01/02 02:55:29;;;;;;;62.85;26.65;;;;;;;2.71;100.00;100360.03;5010564;28;20046;-46
2023/01/02 02:57:57;;;;;;;59.15;25.50;;;;;;;2.71;100.00;100360.03;5015310;28;20042;-47
2023/01/02 03:00:24;;;;;;;69.60;26.13;;;;;;;2.69;100.00;100357.63;5014465;28;20046;-46
2023/01/02 03:03:31;;;;;;;69.03;25.58;;;;;;;2.69;100.00;100362.28;4996014;28;20489;-47
2023/01/02 03:06:02;;;;;;;61.17;25.27;;;;;;;2.71;100.00;100363.59;4993302;28;20409;-46
2023/01/02 03:09:04;;;;;;;61.22;25.20;;;;;;;2.73;100.00;100358.63;4992506;28;20432;-46
2023/01/02 03:11:57;;;;;;;56.22;25.73;;;;;;;2.75;100.00;100370.09;4992522;28;20061;-46
2023/01/02 03:14:58;;;;;;;57.38;25.35;;;;;;;2.77;100.00;100380.72;4991474;28;20034;-47
2023/01/02 03:22:15;;;;;;;53.20;22.00;;;;;;;2.78;100.00;100391.31;4980688;28;20050;-48
2023/01/02 03:24:47;;;;;;;61.22;25.75;;;;;;;2.80;100.00;100391.03;4992112;28;20097;-46
2023/01/02 03:30:58;;;;;;;48.70;22.45;;;;;;;2.83;100.00;100402.16;4985955;28;20034;-46
2023/01/02 03:33:30;;;;;;;40.30;20.55;;;;;;;2.86;100.00;100401.56;4988116;28;20038;-46
2023/01/02 03:36:03;;;;;;;45.75;20.45;;;;;;;2.87;100.00;100407.84;4993627;28;20046;-48
2023/01/02 03:39:03;;;;;;;39.67;21.05;;;;;;;2.87;100.00;100408.66;4993063;28;20046;-47
2023/01/02 03:42:02;;;;;;;45.60;20.33;;;;;;;2.89;100.00;100417.38;4989491;28;20042;-46
2023/01/02 03:44:45;;;;;;;45.35;21.20;;;;;;;2.90;100.00;100432.66;4987660;28;20789;-47
2023/01/02 03:47:39;;;;;;;47.65;19.98;;;;;;;2.92;100.00;100421.41;4995284;28;20054;-46
2023/01/02 03:50:33;;;;;;;37.92;16.90;;;;;;;2.92;100.00;100435.09;4994138;28;20046;-46
2023/01/02 03:53:22;;;;;;;39.00;17.08;;;;;;;2.90;100.00;100440.88;4990291;28;20049;-46
2023/01/02 04:00:08;;;;;;;37.30;17.20;;;;;;;2.91;100.00;100452.63;4990212;28;20042;-46
2023/01/02 04:02:43;;;;;;;34.05;16.23;;;;;;;2.92;100.00;100454.22;4978782;28;20082;-46
2023/01/02 04:05:19;;;;;;;31.13;14.63;;;;;;;2.90;100.00;100454.53;4986829;28;20057;-48
2023/01/02 04:12:26;;;;;;;28.10;14.05;;;;;;;2.87;100.00;100468.81;4973303;28;20477;-46
2023/01/02 04:15:01;;;;;;;30.75;13.65;;;;;;;2.89;100.00;100472.03;4974635;28;20077;-46
2023/01/02 04:17:56;;;;;;;22.63;13.82;;;;;;;2.92;100.00;100473.38;4986664;28;20129;-46
2023/01/02 04:20:48;;;;;;;27.63;14.85;;;;;;;2.94;100.00;100474.69;4959831;28;20501;-46
2023/01/02 04:27:02;;;;;;;26.17;13.85;;;;;;;2.91;100.00;100469.81;4970543;28;20081;-46
2023/01/02 04:29:50;;;;;;;25.10;14.88;;;;;;;2.92;100.00;100473.38;4973648;28;20055;-46
2023/01/02 04:36:09;;;;;;;37.60;17.35;;;;;;;2.87;100.00;100477.00;4970632;28;20032;-46
2023/01/02 04:39:00;;;;;;;35.88;16.50;;;;;;;2.87;100.00;100477.00;4969939;28;20050;-45
2023/01/02 04:49:09;;;;;;;40.30;18.33;;;;;;;2.90;100.00;100487.34;4971752;28;20042;-48
2023/01/02 04:51:35;;;;;;;33.75;18.02;;;;;;;2.93;100.00;100488.66;4985942;28;20571;-48
2023/01/02 05:02:14;;;;;;;34.05;17.90;;;;;;;2.88;100.00;100502.44;4974374;28;20069;-46
2023/01/02 05:04:41;;;;;;;37.05;18.95;;;;;;;2.89;100.00;100501.31;4969128;28;20058;-46
2023/01/02 05:12:10;;;;;;;35.35;16.75;;;;;;;2.86;100.00;100513.66;4983138;28;20123;-48
2023/01/02 05:14:37;;;;;;;36.25;16.50;;;;;;;2.81;100.00;100530.16;4988673;28;20510;-47
2023/01/02 05:17:34;;;;;;;31.23;15.73;;;;;;;2.83;100.00;100527.91;4983022;28;20419;-46
2023/01/02 05:20:20;;;;;;;31.13;15.80;;;;;;;2.85;100.00;100531.19;4978409;28;20491;-46
2023/01/02 05:26:16;;;;;;;34.47;16.27;;;;;;;2.82;100.00;100545.44;4993192;28;20046;-47
2023/01/02 05:28:43;;;;;;;27.63;15.50;;;;;;;2.84;100.00;100550.59;4988911;28;20050;-47
2023/01/02 05:34:45;;;;;;;28.77;14.10;;;;;;;2.85;100.00;100553.06;4992230;28;20074;-46
2023/01/02 05:37:12;;;;;;;26.13;13.27;;;;;;;2.80;100.00;100550.41;4989404;28;20143;-46
2023/01/02 05:39:38;;;;;;;28.77;14.32;;;;;;;2.79;100.00;100558.88;4988907;28;20044;-46
2023/01/02 05:42:05;;;;;;;27.40;14.45;;;;;;;2.78;100.00;100552.59;4991628;28;20050;-46
2023/01/02 05:45:08;;;;;;;25.40;13.48;;;;;;;2.76;100.00;100560.31;4988236;28;20059;-46
2023/01/02 05:47:35;;;;;;;28.90;15.75;;;;;;;2.75;100.00;100569.63;4984899;28;20115;-46
2023/01/02 05:50:02;;;;;;;26.08;13.48;;;;;;;2.75;100.00;100566.91;4987186;28;20046;-46
2023/01/02 05:53:22;;;;;;;24.50;13.48;;;;;;;2.77;100.00;100572.06;4990341;28;20039;-50
2023/01/02 05:55:50;;;;;;;23.23;12.55;;;;;;;2.77;100.00;100581.06;4988818;28;20370;-47
2023/01/02 05:58:17;;;;;;;25.42;13.80;;;;;;;2.75;100.00;100575.09;4989378;28;20484;-46
2023/01/02 06:00:44;;;;;;;23.45;12.93;;;;;;;2.76;100.00;100589.53;4980214;28;20491;-46
2023/01/02 06:03:11;;;;;;;23.40;13.70;;;;;;;2.76;100.00;100598.56;4993472;28;20616;-48
2023/01/02 06:05:38;;;;;;;26.20;13.88;;;;;;;2.76;100.00;100601.31;4990510;28;20407;-47
2023/01/02 06:08:05;;;;;;;25.10;14.30;;;;;;;2.76;100.00;100604.03;4989052;28;20066;-47
2023/01/02 06:10:31;;;;;;;24.00;12.45;;;;;;;2.77;100.00;100608.41;4991217;28;20042;-46
2023/01/02 06:12:58;;;;;;;26.70;14.98;;;;;;;2.78;100.00;100607.28;4990655;28;20038;-47
2023/01/02 06:15:25;;;;;;;23.98;14.90;;;;;;;2.79;100.00;100614.38;4990372;28;20444;-49
2023/01/02 06:17:52;;;;;;;27.92;16.02;;;;;;;2.79;100.00;100619.03;4993386;28;20039;-46
2023/01/02 06:20:19;;;;;;;23.10;14.00;;;;;;;2.76;100.00;100617.69;4993069;28;20515;-47
2023/01/02 06:22:45;;;;;;;24.58;13.48;;;;;;;2.75;100.00;100628.94;4995715;28;20488;-51
2023/01/02 06:25:12;;;;;;;19.42;10.23;;;;;;;2.73;100.00;100621.03;4994891;28;20054;-46
2023/01/02 06:27:39;;;;;;;18.63;9.88;;;;;;;2.72;100.00;100633.09;4987036;28;20054;-46
2023/01/02 06:30:06;;;;;;;19.63;9.75;;;;;;;2.68;100.00;100639.41;4989728;28;20404;-50
2023/01/02 06:35:59;;;;;;;15.68;9.48;;;;;;;2.65;100.00;100632.63;4991979;28;20069;-46
2023/01/02 06:42:49;;;;;;;16.13;9.00;;;;;;;2.67;100.00;100646.00;4989391;28;20391;-48
2023/01/02 06:45:39;;;;;;;20.10;9.95;;;;;;;2.68;100.00;100656.63;4987540;28;20038;-48
2023/01/02 06:48:06;;;;;;;17.73;9.68;;;;;;;2.70;100.00;100656.34;4995386;28;20101;-46
2023/01/02 06:50:33;;;;;;;14.48;8.40;;;;;;;2.71;100.00;100664.25;4994027;28;20096;-46
2023/01/02 06:53:25;;;;;;;14.40;8.63;;;;;;;2.71;100.00;100664.25;5000441;28;20054;-47
2023/01/02 06:55:57;;;;;;;18.15;9.90;;;;;;;2.75;100.00;100664.47;4992195;28;20042;-47
2023/01/02 06:58:27;;;;;;;17.03;9.27;;;;;;;2.73;100.00;100662.03;4996131;28;20566;-48
2023/01/02 07:00:54;;;;;;;20.13;9.90;;;;;;;2.74;100.00;100660.13;4998529;28;20637;-46
2023/01/02 07:03:21;;;;;;;17.02;9.68;;;;;;;2.74;100.00;100663.66;4997046;28;20416;-47
2023/01/02 07:05:48;;;;;;;16.73;9.43;;;;;;;2.74;100.00;100663.66;4994277;28;20093;-46
2023/01/02 07:08:14;;;;;;;20.00;10.40;;;;;;;2.73;100.00;100662.03;4991153;28;20415;-46
2023/01/02 07:10:41;;;;;;;19.88;10.45;;;;;;;2.70;100.00;100670.81;4985015;28;20503;-47
2023/01/02 07:13:14;;;;;;;19.52;10.63;;;;;;;2.71;100.00;100683.38;4990794;28;20053;-47
2023/01/02 07:15:55;;;;;;;15.02;9.05;;;;;;;2.72;100.00;100679.56;4993491;28;20046;-47
2023/01/02 07:18:22;;;;;;;18.13;8.75;;;;;;;2.72;100.00;100685.03;4987106;28;20050;-46
2023/01/02 07:25:25;;;;;;;15.85;8.60;;;;;;;2.75;100.00;100692.63;4989827;28;20042;-46
2023/01/02 07:27:51;;;;;;;15.02;7.70;;;;;;;2.76;100.00;100696.97;4989578;28;20050;-46
2023/01/02 07:30:19;;;;;;;14.07;7.63;;;;;;;2.76;100.00;100702.44;4988603;28;20129;-47
2023/01/02 07:32:45;;;;;;;15.32;8.48;;;;;;;2.75;100.00;100695.38;4991146;28;20061;-46
2023/01/02 07:38:56;;;;;;;12.85;6.63;;;;;;;2.78;100.00;100715.84;4985941;28;20476;-46
2023/01/02 07:41:25;;;;;;;14.55;8.10;;;;;;;2.74;100.00;100723.81;4990285;28;20042;-46
2023/01/02 07:43:57;;;;;;;13.07;7.88;;;;;;;2.75;100.00;100728.16;4997814;28;20042;-47
2023/01/02 07:47:00;;;;;;;15.07;7.88;;;;;;;2.76;100.00;100727.03;4994224;28;20129;-46
2023/01/02 07:49:28;;;;;;;16.65;8.63;;;;;;;2.76;100.00;100720.75;4991201;28;20097;-46
2023/01/02 07:52:38;;;;;;;15.80;9.05;;;;;;;2.74;100.00;100732.00;4990981;28;20045;-46
2023/01/02 07:55:16;;;;;;;13.75;7.70;;;;;;;2.74;100.00;100742.13;4993251;28;20042;-47
2023/01/02 07:57:46;;;;;;;16.08;8.05;;;;;;;2.73;100.00;100735.84;4995787;28;21097;-48
2023/01/02 08:00:14;;;;;;;13.13;8.32;;;;;;;2.73;100.00;100752.22;4991702;28;20050;-48
2023/01/02 08:02:41;;;;;;;13.15;7.72;;;;;;;2.73;100.00;100746.75;4993926;28;20558;-46
2023/01/02 08:05:08;;;;;;;19.17;8.98;;;;;;;2.74;100.00;100756.59;4990865;28;20038;-47
2023/01/02 08:07:36;;;;;;;19.48;11.10;;;;;;;2.73;100.00;100760.44;4994499;28;20088;-48
2023/01/02 08:10:11;;;;;;;15.77;9.80;;;;;;;2.75;100.00;100760.16;4994855;28;20092;-46
2023/01/02 08:12:38;;;;;;;21.55;10.40;;;;;;;2.74;100.00;100758.53;4992301;28;20055;-46
2023/01/02 08:15:05;;;;;;;22.92;12.30;;;;;;;2.73;100.00;100768.63;4993022;28;20121;-47
2023/01/02 08:17:32;;;;;;;22.70;12.70;;;;;;;2.70;100.00;100771.94;4993508;28;20369;-46
2023/01/02 08:19:59;;;;;;;21.70;12.07;;;;;;;2.67;100.00;100764.34;4978761;28;20042;-47
2023/01/02 08:22:34;;;;;;;21.17;11.55;;;;;;;2.66;100.00;100781.84;4992806;28;20069;-48
2023/01/02 08:25:01;;;;;;;24.33;12.82;;;;;;;2.64;100.00;100778.59;4990903;28;20092;-47
2023/01/02 08:27:28;;;;;;;19.92;11.43;;;;;;;2.61;100.00;100781.91;4987940;28;20129;-46
2023/01/02 08:30:12;;;;;;;23.40;11.60;;;;;;;2.58;100.00;100784.41;4982086;28;20043;-48
2023/01/02 08:32:46;;;;;;;18.63;10.95;;;;;;;2.55;100.00;100787.72;4988595;28;20510;-46
2023/01/02 08:35:13;;;;;;;23.92;11.43;;;;;;;2.51;100.00;100803.09;4990683;28;20077;-47
2023/01/02 08:37:40;;;;;;;20.27;10.75;;;;;;;2.45;100.00;100799.59;4987722;28;20048;-47
2023/01/02 08:40:15;;;;;;;19.98;9.90;;;;;;;2.41;100.00;100798.53;4988962;28;20558;-47
2023/01/02 08:42:49;;;;;;;19.23;10.48;;;;;;;2.37;100.00;100798.31;4985158;28;20042;-46
2023/01/02 08:45:16;;;;;;;14.95;9.02;;;;;;;2.33;100.00;100797.25;4987397;28;20069;-48
2023/01/02 08:47:42;;;;;;;17.05;10.15;;;;;;;2.30;100.00;100799.75;4989678;28;20050;-47
2023/01/02 08:53:59;;;;;;;15.32;8.85;;;;;;;2.24;100.00;100820.03;4982531;28;20088;-55
2023/01/02 08:57:21;;;;;;;16.13;8.68;;;;;;;2.22;100.00;100822.22;4993182;28;20038;-47
2023/01/02 09:04:23;;;;;;;16.35;8.95;;;;;;;2.16;100.00;100835.13;4996234;28;20046;-47
2023/01/02 09:07:42;;;;;;;17.45;8.85;;;;;;;2.13;100.00;100832.13;4990446;28;20042;-47
2023/01/02 09:10:09;;;;;;;17.45;9.20;;;;;;;2.12;100.00;100836.00;4981145;28;20069;-47
2023/01/02 09:12:36;;;;;;;18.45;9.98;;;;;;;2.13;100.00;100845.78;4991271;28;20046;-47
2023/01/02 09:15:04;;;;;;;21.23;10.55;;;;;;;2.12;100.00;100844.97;4990928;28;20114;-46
2023/01/02 09:17:31;;;;;;;21.38;10.20;;;;;;;2.14;100.00;100841.97;4991516;28;20495;-47
2023/01/02 09:20:03;;;;;;;14.57;8.77;;;;;;;2.13;100.00;100852.06;4991142;28;20104;-47
2023/01/02 09:22:31;;;;;;;16.00;10.43;;;;;;;2.16;100.00;100850.69;4973766;28;20507;-48
2023/01/02 09:24:59;;;;;;;17.33;9.15;;;;;;;2.15;100.00;100851.78;4990132;28;20133;-47
2023/01/02 09:27:26;;;;;;;15.90;8.73;;;;;;;2.16;100.00;100858.88;4990856;28;20046;-48
2023/01/02 09:29:53;;;;;;;17.00;9.50;;;;;;;2.17;100.00;100857.78;4990415;28;20129;-52
2023/01/02 09:32:20;;;;;;;16.70;8.82;;;;;;;2.17;100.00;100863.25;4989674;28;20518;-47
2023/01/02 09:34:49;;;;;;;15.25;9.07;;;;;;;2.17;100.00;100863.25;4992051;28;20053;-47
2023/01/02 09:37:18;;;;;;;15.63;8.15;;;;;;;2.19;100.00;100869.25;4990215;28;20049;-49
2023/01/02 09:39:45;;;;;;;14.27;8.48;;;;;;;2.19;100.00;100882.91;4991471;28;20092;-49
2023/01/02 09:42:16;;;;;;;17.48;9.18;;;;;;;2.20;100.00;100884.50;4990876;28;20074;-47
2023/01/02 09:44:55;;;;;;;16.05;8.05;;;;;;;2.21;100.00;100875.22;4990209;28;20496;-47
2023/01/02 09:47:28;;;;;;;21.35;10.52;;;;;;;2.22;100.00;100888.59;4989436;28;20400;-49
2023/01/02 09:50:15;;;;;;;16.17;8.70;;;;;;;2.25;100.00;100887.22;4990543;28;20046;-47
2023/01/02 09:52:47;;;;;;;18.23;7.93;;;;;;;2.25;100.00;100887.22;4984256;28;20043;-49
2023/01/02 09:55:17;;;;;;;18.30;8.63;;;;;;;2.26;100.00;100906.03;4990844;28;20049;-48
2023/01/02 09:58:14;;;;;;;13.75;7.68;;;;;;;2.27;100.00;100912.31;4996073;28;20466;-47
2023/01/02 10:00:45;;;;;;;17.17;7.60;;;;;;;2.29;100.00;100904.66;4993006;28;20053;-48
2023/01/02 10:03:26;;;;;;;12.95;7.30;;;;;;;2.28;100.00;100912.03;4998117;28;20100;-48
2023/01/02 10:06:05;;;;;;;11.93;7.07;;;;;;;2.31;100.00;100914.19;4994345;28;20058;-47
2023/01/02 10:08:57;;;;;;;15.98;6.72;;;;;;;2.34;100.00;100919.09;4974457;28;20109;-47
2023/01/02 10:11:42;;;;;;;16.50;7.22;;;;;;;2.35;100.00;100928.91;4974363;28;20511;-51
2023/01/02 10:14:20;;;;;;;12.55;6.95;;;;;;;2.38;100.00;100920.13;4974576;28;20053;-48
2023/01/02 10:16:59;;;;;;;13.98;6.90;;;;;;;2.39;100.00;100915.47;4974097;28;20030;-50
2023/01/02 10:19:55;;;;;;;9.93;6.57;;;;;;;2.41;100.00;100913.28;4974865;28;20404;-47
2023/01/02 10:22:34;;;;;;;12.27;6.45;;;;;;;2.43;100.00;100922.84;4968829;28;20456;-49
2023/01/02 10:25:07;;;;;;;11.30;6.82;;;;;;;2.47;100.00;100942.19;4973737;28;20051;-48
2023/01/02 10:27:41;;;;;;;;;;;;;;;2.47;100.00;100936.72;4974712;28;20137;-47
2023/01/02 10:30:20;;;;;;;8.82;6.35;;;;;;;2.46;100.00;100935.13;4975557;28;19922;-48
2023/01/02 10:32:57;;;;;;;10.02;6.22;;;;;;;2.49;100.00;100941.94;4974232;28;20078;-48
2023/01/02 10:35:36;;;;;;;10.57;5.65;;;;;;;2.51;100.00;100946.00;4974206;28;20050;-49
2023/01/02 10:38:04;;;;;;;10.73;5.78;;;;;;;2.52;100.00;100953.06;4974458;28;20547;-49
2023/01/02 10:40:32;;;;;;;7.93;5.68;;;;;;;2.53;100.00;100938.31;4973820;28;20526;-48
2023/01/02 10:42:59;;;;;;;7.72;5.65;;;;;;;2.55;100.00;100941.56;4974597;28;20054;-48
2023/01/02 10:45:27;;;;;;;8.98;5.45;;;;;;;2.58;100.00;100943.75;4974452;28;20042;-48
2023/01/02 10:47:54;;;;;;;7.20;4.82;;;;;;;2.58;100.00;100945.66;4974430;28;20050;-48
2023/01/02 10:50:25;;;;;;;7.78;5.93;;;;;;;2.60;100.00;100960.66;4973997;28;20499;-44
2023/01/02 10:53:03;;;;;;;9.00;5.03;;;;;;;2.62;100.00;100952.19;4982237;28;20457;-49
2023/01/02 10:55:35;;;;;;;7.40;5.43;;;;;;;2.64;100.00;100955.44;4975624;28;20047;-45
2023/01/02 10:58:05;;;;;;;19.15;12.32;;;;;;;2.67;100.00;100954.88;4976574;28;20078;-46
2023/01/02 11:00:35;;;;;;;50.80;25.05;;;;;;;2.71;100.00;100961.38;4974994;28;20034;-45
2023/01/02 11:03:11;;;;;;;8.35;5.63;;;;;;;2.76;100.00;100962.16;4972764;28;20141;-46
2023/01/02 11:05:50;;;;;;;7.45;5.53;;;;;;;2.79;100.00;100960.75;4972643;28;20408;-47
2023/01/02 11:08:38;;;;;;;6.90;4.82;;;;;;;2.78;100.00;100953.69;4971962;28;20043;-46
2023/01/02 11:11:16;;;;;;;8.13;5.28;;;;;;;2.79;100.00;100958.84;4972493;28;20093;-46
2023/01/02 11:13:47;;;;;;;7.43;5.40;;;;;;;2.80;100.00;100970.59;4973316;28;20050;-47
2023/01/02 11:16:22;;;;;;;9.15;5.57;;;;;;;2.83;100.00;100956.34;4974335;28;20047;-47
2023/01/02 11:18:57;;;;;;;7.32;5.22;;;;;;;2.85;100.00;100963.16;4983363;28;20054;-51
2023/01/02 11:21:35;;;;;;;7.38;4.88;;;;;;;2.88;100.00;100973.53;4973105;28;20137;-49
2023/01/02 11:24:18;;;;;;;6.35;4.25;;;;;;;2.90;100.00;100965.03;4972807;28;20055;-46
2023/01/02 11:26:48;;;;;;;5.82;4.30;;;;;;;2.93;100.00;100969.91;4972038;28;20042;-47
2023/01/02 11:29:22;;;;;;;9.65;4.45;;;;;;;2.95;100.00;100971.25;4972888;28;20105;-46
2023/01/02 11:31:55;;;;;;;5.35;3.97;;;;;;;2.96;100.00;100974.81;4973441;28;20126;-47
2023/01/02 11:34:38;;;;;;;6.70;4.43;;;;;;;2.97;100.00;100982.72;4971697;28;20050;-48
2023/01/02 11:37:15;;;;;;;8.10;4.80;;;;;;;2.98;100.00;100975.34;4972190;28;20042;-48
2023/01/02 11:40:23;;;;;;;7.00;4.40;;;;;;;3.00;100.00;100968.47;4961175;28;20042;-48
2023/01/02 11:45:51;;;;;;;5.78;4.60;;;;;;;3.01;100.00;100969.28;4970438;28;20446;-49
2023/01/02 11:48:22;;;;;;;7.53;4.50;;;;;;;3.02;100.00;100962.69;4972754;28;20129;-48
2023/01/02 11:50:49;;;;;;;5.78;4.22;;;;;;;3.05;100.00;100971.16;4971508;28;20039;-48
2023/01/02 11:53:31;;;;;;;6.15;4.25;;;;;;;3.07;100.00;100977.13;4958977;28;20047;-47
2023/01/02 11:56:30;;;;;;;10.77;4.23;;;;;;;3.10;100.00;100975.75;4957943;28;20046;-49
2023/01/02 11:59:10;;;;;;;6.60;4.97;;;;;;;3.12;100.00;100978.19;4968978;28;20505;-47
2023/01/02 12:02:12;;;;;;;4.90;4.40;;;;;;;3.15;100.00;100981.16;4974095;28;20032;-49
2023/01/02 12:04:39;;;;;;;8.87;5.63;;;;;;;3.19;100.00;100973.19;4965951;28;20054;-47
2023/01/02 12:07:41;;;;;;;7.63;4.53;;;;;;;3.25;100.00;100972.03;4981745;28;20062;-49
2023/01/02 12:10:21;;;;;;;6.65;4.20;;;;;;;3.28;100.00;100976.94;4991173;28;20388;-47
2023/01/02 12:13:32;;;;;;;8.63;5.15;;;;;;;3.28;100.00;100971.47;4982849;28;20202;-47
2023/01/02 12:16:12;;;;;;;5.05;3.85;;;;;;;3.29;100.00;100979.38;4973951;28;20480;-49
2023/01/02 12:19:04;;;;;;;5.45;3.85;;;;;;;3.31;100.00;100976.34;4979688;28;20042;-48
2023/01/02 12:21:53;;;;;;;5.17;4.00;;;;;;;3.33;100.00;100983.16;4990554;28;20109;-47
2023/01/02 12:24:45;;;;;;;5.85;3.80;;;;;;;3.34;100.00;100984.78;4990074;28;20403;-50
2023/01/02 12:27:29;;;;;;;13.02;3.90;;;;;;;3.37;100.00;100980.63;4991919;28;20050;-48
2023/01/02 12:30:03;;;;;;;4.40;3.47;;;;;;;3.38;100.00;100977.63;5000088;28;20472;-49
2023/01/02 12:32:45;;;;;;;5.13;3.70;;;;;;;3.42;100.00;100978.66;4990962;28;20085;-48
2023/01/02 12:35:22;;;;;;;5.10;3.85;;;;;;;3.44;100.00;100987.38;4991363;28;20046;-47
2023/01/02 12:37:55;;;;;;;5.55;4.00;;;;;;;3.49;100.00;100989.28;4990734;28;20089;-47
2023/01/02 12:40:46;;;;;;;5.68;3.95;;;;;;;3.54;100.00;100991.94;4991436;28;20056;-48
2023/01/02 12:43:28;;;;;;;11.23;5.13;;;;;;;3.55;100.00;100993.56;4991127;28;20042;-47
2023/01/02 12:46:05;;;;;;;5.07;3.63;;;;;;;3.57;100.00;100985.88;4990965;28;20035;-48
2023/01/02 12:49:00;;;;;;;5.00;3.97;;;;;;;3.59;100.00;100989.13;4991162;28;20065;-48
2023/01/02 12:51:29;;;;;;;4.43;3.20;;;;;;;3.60;100.00;100994.31;4978873;28;21163;-48
2023/01/02 12:54:00;;;;;;;7.00;4.13;;;;;;;3.62;100.00;100999.50;4991521;28;20149;-47
2023/01/02 12:56:54;;;;;;;8.73;4.68;;;;;;;3.64;100.00;100989.06;4993076;28;20487;-49
2023/01/02 12:59:48;;;;;;;5.63;3.90;;;;;;;3.65;100.00;100991.50;4990898;28;20452;-48
2023/01/02 13:03:04;;;;;;;4.07;3.28;;;;;;;3.69;100.00;100994.47;4994608;28;20042;-49
2023/01/02 13:05:39;;;;;;;7.07;3.90;;;;;;;3.72;100.00;100987.59;4968667;28;20528;-47
2023/01/02 13:08:15;;;;;;;5.78;4.25;;;;;;;3.75;100.00;100992.50;4970148;28;20476;-48
2023/01/02 13:10:43;;;;;;;4.38;3.53;;;;;;;3.79;100.00;100983.38;4983159;28;20133;-52
2023/01/02 13:13:12;;;;;;;4.75;3.30;;;;;;;3.82;100.00;100982.81;4990886;28;20060;-49
2023/01/02 13:15:44;;;;;;;5.55;4.15;;;;;;;3.87;100.00;100985.47;4990711;28;20053;-51
2023/01/02 13:19:00;;;;;;;4.95;3.35;;;;;;;3.89;100.00;100972.28;4990444;28;20042;-53
2023/01/02 13:21:35;;;;;;;6.68;3.35;;;;;;;3.92;100.00;100970.91;4969405;28;20081;-48
2023/01/02 13:24:02;;;;;;;5.55;3.42;;;;;;;3.96;100.00;100969.19;4987534;28;20050;-56
2023/01/02 13:26:30;;;;;;;4.72;3.10;;;;;;;4.01;100.00;100975.41;4991663;28;20065;-49
2023/01/02 13:28:57;;;;;;;4.80;3.35;;;;;;;4.06;100.00;100975.34;4994573;28;20116;-50
2023/01/02 13:31:24;;;;;;;5.78;3.78;;;;;;;4.13;100.00;100978.53;4994913;28;20285;-51